Cary, NC

4:10 PM EDT on August 25, 2016 (GMT -0400)
| | Change Station

Elev -9999 ft 0.00 °N, 0.00 °E | Updated

Clear
Clear
88 °F
Feels Like 91 °F
N
5
Wind Variable Wind from South
Gusts mph

Today
High -- | Low -- °F
--% Chance of Precip.
Yesterday
High -- | Low -- °F
Precip. -- in
Pressure 30.08 in
Visibility 10.0 miles
Clouds Few 5500 ft
Mostly Cloudy 25000 ft
Heat Index 91 °F
Dew Point 68 °F
Humidity 51%
Rainfall --
Snow Depth Not available.
6:42 AM 7:51 PM
Last Quarter, 42% visible
METAR KRDU 251951Z 23004KT 10SM FEW055 BKN250 33/19 A3009 RMK AO2 SLP184 T03280194
Pressure 30.08 in
Visibility 10.0 miles
Clouds Few 5500 ft
Mostly Cloudy 25000 ft
Heat Index 91 °F
Dew Point 68 °F
Humidity 51%
Rainfall --
Snow Depth Not available.
6:42 AM 7:51 PM
Last Quarter, 42% visible
METAR KRDU 251951Z 23004KT 10SM FEW055 BKN250 33/19 A3009 RMK AO2 SLP184 T03280194
A tropical disturbance pushing toward the Bahamas, is expected to develop into a tropical depression or storm, and will likely target Florida and the Gulf Coast this weekend into next week.

Right now, the disturbance remains a broad area of low pressure pushing through the Dominican Republic and Haiti, headed toward the southeast Bahamas. Rainfall totals over 3 inches (with locally higher amounts) are expected in HispaƱiola, particularly over elevated terrain.

10-Day Weather Forecast

Almanac

Astronomy

Aug. 25, 2016 Rise Set
Actual Time
Civil Twilight
Nautical Twilight
Astronomical Twilight
Moon
Length of Visible Light
Length of Day
Tomorrow will be .
, % of the Moon is Illuminated

Today's Extremes

State Highs State Lows

Community

WunderPhotos

Upload Photos

1,934,921 photos uploaded!

WunderBlog® & News

Nearby

Air Quality

  Air Quality AQ Index Pollutant
Not available.

Snow Depth

Station Depth Elevation

Earthquake Activity

City Distance Mag. Time & Date
Minimum magnitude displayed is 2.5.

Coastal Water Temperatures

Place Temperature

Stations

Nearby Weather Stations

Station Location Temp. Windchill Dew Point Humidity Wind Precip. Elev Updated Type
                   

Watches & Warnings

There are currently no watches in effect.